createdAt,value
2022-10-01T00:00:00.705Z,82.11
2022-10-01T00:02:28.801Z,82.38
2022-10-01T00:04:57.085Z,82.55
2022-10-01T00:07:25.180Z,82.57
2022-10-01T00:09:53.171Z,82.92
2022-10-01T00:12:21.166Z,83.19
2022-10-01T00:14:49.171Z,83.25
2022-10-01T00:17:18.854Z,83.31
2022-10-01T00:19:46.853Z,83.93
2022-10-01T00:22:14.943Z,83.81
2022-10-01T00:24:44.204Z,83.64
2022-10-01T00:27:12.637Z,83.56
2022-10-01T00:29:40.659Z,83.43
2022-10-01T00:32:10.071Z,83.82
2022-10-01T00:34:39.457Z,83.71
2022-10-01T00:37:09.669Z,83.63
2022-10-01T00:39:37.860Z,84.26
2022-10-01T00:42:18.195Z,84.45
2022-10-01T00:44:46.830Z,84.69
2022-10-01T00:47:24.449Z,83.92
2022-10-01T00:49:59.522Z,84.57
2022-10-01T00:52:32.494Z,85.18
2022-10-01T00:55:06.131Z,86.09
2022-10-01T00:57:35.804Z,85.38
2022-10-01T01:00:08.413Z,85.96
2022-10-01T01:02:36.546Z,86.82
2022-10-01T01:05:08.937Z,86.91
2022-10-01T01:07:39.433Z,88.38
2022-10-01T01:10:09.233Z,87.83
2022-10-01T01:12:48.693Z,87.45
2022-10-01T01:15:22.909Z,88.22
2022-10-01T01:17:57.339Z,87.89
2022-10-01T01:20:49.891Z,87.38
2022-10-01T01:23:48.442Z,87.47
2022-10-01T01:26:29.558Z,87.31
2022-10-01T01:29:04.432Z,87.53
2022-10-01T01:31:37.455Z,86.98
2022-10-01T01:34:12.540Z,87.12
2022-10-01T01:36:45.806Z,87.56
2022-10-01T01:39:17.352Z,87.33
2022-10-01T01:41:51.189Z,87.02
2022-10-01T01:44:25.815Z,86.80
2022-10-01T01:46:56.997Z,86.70
2022-10-01T01:49:25.584Z,86.29
2022-10-01T01:51:58.230Z,86.14
2022-10-01T01:54:29.597Z,85.93
2022-10-01T01:56:59.113Z,85.96
2022-10-01T01:59:29.267Z,86.02
2022-10-01T02:01:58.958Z,86.38
2022-10-01T02:04:30.765Z,86.36
2022-10-01T02:07:16.691Z,86.52
2022-10-01T02:09:53.356Z,86.90
2022-10-01T02:12:35.781Z,86.79
2022-10-01T02:15:11.902Z,86.92
2022-10-01T02:17:50.638Z,87.07
2022-10-01T02:20:24.465Z,87.28
2022-10-01T02:22:56.391Z,87.66
2022-10-01T02:25:27.926Z,87.74
2022-10-01T02:28:01.629Z,88.11
2022-10-01T02:30:35.635Z,87.72
2022-10-01T02:33:05.882Z,87.93
2022-10-01T02:35:36.464Z,88.41
2022-10-01T02:38:07.498Z,88.50
2022-10-01T02:40:39.070Z,88.63
2022-10-01T02:43:11.803Z,88.66
2022-10-01T02:45:44.927Z,88.38
2022-10-01T02:48:18.146Z,88.37
2022-10-01T02:50:51.179Z,88.98
2022-10-01T02:53:23.369Z,89.41
2022-10-01T02:55:53.897Z,89.37
2022-10-01T02:58:21.540Z,89.22
2022-10-01T03:00:50.934Z,89.46
2022-10-01T03:03:18.865Z,89.36
2022-10-01T03:05:46.799Z,89.63
2022-10-01T03:08:14.738Z,90.48
2022-10-01T03:10:46.575Z,89.98
2022-10-01T03:13:15.109Z,91.18
2022-10-01T03:15:43.178Z,92.39
2022-10-01T03:18:12.568Z,93.56
2022-10-01T03:20:40.509Z,94.24
2022-10-01T03:23:08.442Z,94.96
2022-10-01T03:25:36.483Z,94.54
2022-10-01T03:28:04.536Z,95.26
2022-10-01T03:30:33.308Z,96.07
2022-10-01T03:33:01.286Z,96.43
2022-10-01T03:35:30.594Z,96.69
2022-10-01T03:37:58.536Z,96.67
2022-10-01T03:40:26.537Z,96.25
2022-10-01T03:42:54.490Z,96.81
2022-10-01T03:45:22.453Z,96.15
2022-10-01T03:47:53.458Z,95.05
2022-10-01T03:50:22.046Z,93.70
2022-10-01T03:52:51.833Z,92.89
2022-10-01T03:55:20.089Z,93.17
2022-10-01T03:57:48.464Z,95.94
2022-10-01T04:00:18.384Z,96.87
2022-10-01T04:02:46.465Z,96.62
2022-10-01T04:05:14.699Z,96.26
2022-10-01T04:07:43.404Z,95.57
2022-10-01T04:10:12.892Z,95.01
2022-10-01T04:12:40.809Z,94.85
2022-10-01T04:15:09.714Z,94.49
2022-10-01T04:17:38.729Z,94.98
2022-10-01T04:20:09.697Z,96.01
2022-10-01T04:22:40.879Z,96.78
2022-10-01T04:25:11.014Z,98.21
2022-10-01T04:27:40.430Z,98.86
2022-10-01T04:30:10.700Z,99.12
2022-10-01T04:32:38.839Z,98.99
2022-10-01T04:35:11.689Z,98.71
2022-10-01T04:37:39.652Z,98.59
2022-10-01T04:40:09.399Z,99.05
2022-10-01T04:42:42.025Z,99.22
2022-10-01T04:45:11.541Z,99.30
2022-10-01T04:47:39.450Z,98.61
2022-10-01T04:50:08.101Z,98.10
2022-10-01T04:52:36.235Z,98.86
2022-10-01T04:55:04.346Z,99.73
2022-10-01T04:57:32.251Z,99.19
2022-10-01T05:00:02.099Z,98.59
2022-10-01T05:02:30.398Z,97.93
2022-10-01T05:04:58.360Z,96.57
2022-10-01T05:07:26.287Z,94.87
2022-10-01T05:09:54.220Z,93.35
2022-10-01T05:12:24.693Z,93.51
2022-10-01T05:14:53.316Z,92.65
2022-10-01T05:17:24.110Z,93.76
2022-10-01T05:19:52.186Z,91.08
2022-10-01T05:22:20.465Z,90.67
2022-10-01T05:24:48.621Z,90.96
2022-10-01T05:27:16.742Z,90.53
2022-10-01T05:29:44.712Z,89.90
2022-10-01T05:32:13.231Z,91.60
2022-10-01T05:34:42.630Z,87.72
2022-10-01T05:37:11.005Z,83.38
2022-10-01T05:39:39.075Z,81.91
2022-10-01T05:42:07.049Z,81.06
2022-10-01T05:44:38.018Z,80.81
2022-10-01T05:47:06.937Z,80.37
2022-10-01T05:49:35.320Z,79.00
2022-10-01T05:52:04.721Z,77.82
2022-10-01T05:54:32.667Z,78.24
2022-10-01T05:57:00.577Z,75.90
2022-10-01T05:59:31.663Z,76.86
2022-10-01T06:01:59.995Z,74.11
2022-10-01T06:04:28.301Z,73.93
2022-10-01T06:06:56.271Z,73.04
2022-10-01T06:09:25.798Z,73.31
2022-10-01T06:11:54.015Z,71.93
2022-10-01T06:14:22.222Z,68.94
2022-10-01T06:16:54.366Z,69.67
2022-10-01T06:19:22.355Z,68.48
2022-10-01T06:21:50.275Z,63.27
2022-10-01T06:24:18.219Z,64.92
2022-10-01T06:26:48.557Z,70.48
2022-10-01T06:29:16.474Z,69.19
2022-10-01T06:31:44.451Z,69.13
2022-10-01T06:34:12.421Z,71.14
2022-10-01T06:36:40.335Z,72.91
2022-10-01T06:39:10.985Z,72.46
2022-10-01T06:41:38.882Z,72.11
2022-10-01T06:44:08.254Z,72.29
2022-10-01T06:46:36.314Z,71.63
2022-10-01T06:49:04.222Z,69.76
2022-10-01T06:51:49.454Z,70.45
2022-10-01T06:54:18.413Z,69.93
2022-10-01T06:56:46.514Z,68.32
2022-10-01T06:59:15.812Z,67.89
2022-10-01T07:01:43.754Z,69.31
2022-10-01T07:04:13.156Z,66.06
2022-10-01T07:06:41.291Z,67.03
2022-10-01T07:09:09.219Z,65.47
2022-10-01T07:11:39.278Z,64.81
2022-10-01T07:14:07.189Z,64.40
2022-10-01T07:16:39.321Z,63.28
2022-10-01T07:19:07.290Z,65.43
2022-10-01T07:21:35.662Z,65.75
2022-10-01T07:24:03.766Z,65.48
2022-10-01T07:26:31.710Z,63.24
2022-10-01T07:28:59.685Z,63.95
2022-10-01T07:31:27.645Z,62.99
2022-10-01T07:33:59.156Z,64.42
2022-10-01T07:36:27.200Z,59.41
2022-10-01T07:38:55.941Z,54.63
2022-10-01T07:41:23.937Z,54.03
2022-10-01T07:43:51.854Z,49.86
2022-10-01T07:46:19.855Z,50.05
2022-10-01T07:48:49.641Z,47.16
2022-10-01T07:51:18.952Z,52.75
2022-10-01T07:53:46.893Z,49.97
2022-10-01T07:56:15.182Z,53.97
2022-10-01T07:58:43.486Z,52.62
2022-10-01T08:01:11.487Z,54.56
2022-10-01T08:03:39.457Z,47.02
2022-10-01T08:06:07.503Z,47.58
2022-10-01T08:08:36.784Z,52.13
2022-10-01T08:11:04.865Z,52.54
2022-10-01T08:13:32.794Z,51.80
2022-10-01T08:16:03.360Z,53.71
2022-10-01T08:18:31.306Z,54.85
2022-10-01T08:21:00.861Z,54.55
2022-10-01T08:23:29.322Z,53.17
2022-10-01T08:26:02.559Z,52.45
2022-10-01T08:28:30.497Z,52.48
2022-10-01T08:30:58.485Z,49.27
2022-10-01T08:33:26.398Z,49.49
2022-10-01T08:35:54.293Z,48.28
2022-10-01T08:38:31.340Z,46.06
2022-10-01T08:41:08.310Z,45.03
2022-10-01T08:43:39.938Z,43.29
2022-10-01T08:46:14.167Z,43.99
2022-10-01T08:48:56.913Z,39.79
2022-10-01T08:51:28.742Z,41.85
2022-10-01T08:54:00.600Z,41.37
2022-10-01T08:56:34.593Z,41.10
2022-10-01T08:59:11.382Z,40.22
2022-10-01T09:01:39.525Z,38.68
2022-10-01T09:04:08.018Z,40.80
2022-10-01T09:06:37.814Z,40.36
2022-10-01T09:09:27.142Z,39.78
2022-10-01T09:12:18.697Z,41.13
2022-10-01T09:15:16.866Z,35.94
2022-10-01T09:18:03.416Z,39.98
2022-10-01T09:20:36.428Z,38.64
2022-10-01T09:23:18.629Z,39.26
2022-10-01T09:25:51.411Z,38.17
2022-10-01T09:28:23.679Z,40.64
2022-10-01T09:30:56.931Z,40.11
2022-10-01T09:33:30.371Z,38.35
2022-10-01T09:36:07.165Z,39.65
2022-10-01T09:38:39.787Z,36.45
2022-10-01T09:41:10.586Z,38.68
2022-10-01T09:43:41.854Z,41.58
2022-10-01T09:46:14.268Z,37.29
2022-10-01T09:48:48.927Z,41.90
2022-10-01T09:51:22.291Z,42.27
2022-10-01T09:54:02.326Z,43.62
2022-10-01T09:56:35.934Z,41.93
2022-10-01T09:59:09.391Z,40.91
2022-10-01T10:01:44.575Z,40.38
2022-10-01T10:04:16.673Z,43.26
2022-10-01T10:06:48.722Z,38.99
2022-10-01T10:09:19.917Z,40.93
2022-10-01T10:11:47.845Z,44.55
2022-10-01T10:14:29.971Z,43.10
2022-10-01T10:16:59.209Z,41.64
2022-10-01T10:19:29.343Z,42.61
2022-10-01T10:22:00.761Z,42.50
2022-10-01T10:24:33.667Z,45.00
2022-10-01T10:27:04.752Z,46.13
2022-10-01T10:29:36.522Z,45.23
2022-10-01T10:32:08.702Z,46.91
2022-10-01T10:34:39.463Z,44.57
2022-10-01T10:37:14.712Z,45.37
2022-10-01T10:39:46.791Z,41.83
2022-10-01T10:42:16.294Z,44.02
2022-10-01T10:44:49.399Z,45.59
2022-10-01T10:47:20.192Z,46.13
2022-10-01T10:49:49.972Z,47.45
2022-10-01T10:52:21.825Z,44.17
2022-10-01T10:54:51.242Z,45.76
2022-10-01T10:57:22.390Z,46.51
2022-10-01T10:59:59.555Z,47.46
2022-10-01T11:02:30.868Z,47.08
2022-10-01T11:05:01.251Z,45.58
2022-10-01T11:07:30.265Z,46.44
2022-10-01T11:10:28.512Z,44.56
2022-10-01T11:13:20.087Z,45.79
2022-10-01T11:16:11.081Z,45.56
2022-10-01T11:18:52.784Z,45.42
2022-10-01T11:21:36.563Z,45.18
2022-10-01T11:24:14.765Z,45.89
2022-10-01T11:26:53.519Z,46.04
2022-10-01T11:29:34.628Z,45.50
2022-10-01T11:32:11.793Z,45.58
2022-10-01T11:35:07.082Z,46.27
2022-10-01T11:37:59.956Z,47.77
2022-10-01T11:40:34.010Z,49.61
2022-10-01T11:43:09.691Z,50.01
2022-10-01T11:45:43.517Z,49.51
2022-10-01T11:48:17.778Z,49.06
2022-10-01T11:50:49.379Z,50.41
2022-10-01T11:53:23.758Z,49.85
2022-10-01T11:56:15.033Z,50.11
2022-10-01T11:58:54.799Z,49.15
2022-10-01T12:01:39.132Z,52.37
2022-10-01T12:04:17.734Z,52.41
2022-10-01T12:06:55.445Z,54.16
2022-10-01T12:09:28.878Z,53.78
2022-10-01T12:12:01.831Z,49.46
2022-10-01T12:14:33.930Z,51.42
2022-10-01T12:17:12.206Z,51.08
2022-10-01T12:19:46.858Z,51.97
2022-10-01T12:22:24.299Z,51.33
2022-10-01T12:24:53.696Z,51.37
2022-10-01T12:27:42.327Z,51.15
2022-10-01T12:30:13.590Z,49.71
2022-10-01T12:32:57.958Z,49.63
2022-10-01T12:35:42.706Z,50.00
2022-10-01T12:38:23.092Z,51.03
2022-10-01T12:40:57.926Z,53.37
2022-10-01T12:43:51.334Z,54.17
2022-10-01T12:46:32.279Z,54.44
2022-10-01T12:49:09.763Z,52.99
2022-10-01T12:51:45.950Z,49.07
2022-10-01T12:54:35.597Z,52.08
2022-10-01T12:57:13.489Z,52.28
2022-10-01T12:59:52.861Z,47.97
2022-10-01T13:02:53.190Z,51.61
2022-10-01T13:05:31.453Z,48.60
2022-10-01T13:08:21.511Z,46.61
2022-10-01T13:11:00.514Z,43.42
2022-10-01T13:13:33.064Z,43.64
2022-10-01T13:16:08.097Z,48.73
2022-10-01T13:18:55.589Z,49.19
2022-10-01T13:21:32.906Z,46.01
2022-10-01T13:24:09.895Z,48.27
2022-10-01T13:26:47.051Z,48.91
2022-10-01T13:29:29.971Z,50.00
2022-10-01T13:31:59.355Z,50.34
2022-10-01T13:34:36.776Z,51.10
2022-10-01T13:37:15.323Z,52.25
2022-10-01T13:39:45.189Z,51.74
2022-10-01T13:42:26.206Z,51.31
2022-10-01T13:44:56.639Z,51.46
2022-10-01T13:47:25.979Z,52.89
2022-10-01T13:50:00.534Z,52.86
2022-10-01T13:52:28.826Z,51.83
2022-10-01T13:54:59.858Z,53.42
2022-10-01T13:57:31.737Z,53.77
2022-10-01T14:00:01.283Z,53.13
2022-10-01T14:02:34.168Z,52.87
2022-10-01T14:05:30.379Z,52.30
2022-10-01T14:08:11.931Z,51.76
2022-10-01T14:11:00.574Z,50.87
2022-10-01T14:13:48.272Z,50.84
2022-10-01T14:16:17.415Z,51.74
2022-10-01T14:18:49.883Z,52.48
2022-10-01T14:21:32.257Z,52.18
2022-10-01T14:24:07.621Z,51.89
2022-10-01T14:26:44.862Z,51.98
2022-10-01T14:29:20.490Z,51.13
2022-10-01T14:31:57.938Z,52.29
2022-10-01T14:34:39.102Z,52.38
2022-10-01T14:37:11.656Z,53.37
2022-10-01T14:39:42.911Z,52.34
2022-10-01T14:42:17.423Z,51.81
2022-10-01T14:44:47.111Z,52.42
2022-10-01T14:47:20.299Z,52.64
2022-10-01T14:49:49.338Z,52.63
2022-10-01T14:52:22.063Z,53.79
2022-10-01T14:54:53.690Z,54.70
2022-10-01T14:57:30.410Z,54.19
2022-10-01T15:00:00.648Z,53.27
2022-10-01T15:02:29.614Z,54.15
2022-10-01T15:04:58.631Z,53.90
2022-10-01T15:07:29.450Z,53.44
2022-10-01T15:10:07.026Z,54.56
2022-10-01T15:12:40.950Z,55.15
2022-10-01T15:15:18.894Z,56.40
2022-10-01T15:17:47.786Z,57.05
2022-10-01T15:20:16.368Z,56.58
2022-10-01T15:22:46.354Z,57.49
2022-10-01T15:25:21.867Z,60.50
2022-10-01T15:27:54.153Z,62.41
2022-10-01T15:30:22.438Z,61.17
2022-10-01T15:32:51.506Z,58.46
2022-10-01T15:35:23.010Z,58.32
2022-10-01T15:37:53.213Z,58.59
2022-10-01T15:40:29.180Z,58.18
2022-10-01T15:43:21.921Z,57.24
2022-10-01T15:46:11.989Z,58.61
2022-10-01T15:48:40.114Z,57.93
2022-10-01T15:51:16.640Z,57.70
2022-10-01T15:53:45.502Z,57.28
2022-10-01T15:56:16.738Z,57.00
2022-10-01T15:58:51.842Z,56.85
2022-10-01T16:01:24.429Z,57.06
2022-10-01T16:03:56.103Z,57.38
2022-10-01T16:06:27.164Z,58.35
2022-10-01T16:09:06.506Z,59.25
2022-10-01T16:11:52.164Z,58.98
2022-10-01T16:14:33.089Z,59.79
2022-10-01T16:17:31.859Z,60.50
2022-10-01T16:20:01.940Z,60.36
2022-10-01T16:22:32.914Z,59.83
2022-10-01T16:25:02.283Z,60.35
2022-10-01T16:27:35.306Z,59.06
2022-10-01T16:30:13.112Z,59.22
2022-10-01T16:32:41.066Z,59.43
2022-10-01T16:35:21.922Z,59.99
2022-10-01T16:37:51.875Z,61.49
2022-10-01T16:40:21.697Z,61.62
2022-10-01T16:42:50.643Z,61.98
2022-10-01T16:45:24.327Z,61.89
2022-10-01T16:47:53.432Z,62.92
2022-10-01T16:50:23.007Z,63.42
2022-10-01T16:52:53.913Z,62.87
2022-10-01T16:55:24.772Z,62.97
2022-10-01T16:57:53.834Z,65.16
2022-10-01T17:00:25.228Z,66.16
2022-10-01T17:02:53.996Z,65.46
2022-10-01T17:05:25.338Z,64.79
2022-10-01T17:07:53.800Z,65.82
2022-10-01T17:10:23.645Z,66.26
2022-10-01T17:12:51.798Z,67.22
2022-10-01T17:15:23.313Z,67.38
2022-10-01T17:17:52.642Z,66.90
2022-10-01T17:20:21.625Z,67.25
2022-10-01T17:22:50.154Z,66.88
2022-10-01T17:25:20.313Z,66.68
2022-10-01T17:27:48.550Z,67.12
2022-10-01T17:30:16.906Z,67.65
2022-10-01T17:32:45.057Z,68.48
2022-10-01T17:35:15.838Z,68.40
2022-10-01T17:37:44.293Z,68.57
2022-10-01T17:40:12.417Z,67.86
2022-10-01T17:42:40.966Z,67.39
2022-10-01T17:45:11.426Z,67.44
2022-10-01T17:47:44.276Z,67.96
2022-10-01T17:50:12.522Z,68.16
2022-10-01T17:52:42.532Z,68.79
2022-10-01T17:55:12.286Z,69.54
2022-10-01T17:57:40.453Z,69.30
2022-10-01T18:00:09.584Z,69.51
2022-10-01T18:02:42.021Z,69.99
2022-10-01T18:05:12.600Z,70.17
2022-10-01T18:07:42.571Z,70.48
2022-10-01T18:10:13.113Z,70.99
2022-10-01T18:12:41.114Z,71.95
2022-10-01T18:15:10.190Z,72.15
2022-10-01T18:17:43.395Z,72.56
2022-10-01T18:20:19.385Z,72.71
2022-10-01T18:22:48.704Z,73.00
2022-10-01T18:25:19.308Z,73.36
2022-10-01T18:27:50.155Z,72.83
2022-10-01T18:30:20.340Z,72.87
2022-10-01T18:32:56.932Z,72.09
2022-10-01T18:35:31.063Z,71.95
2022-10-01T18:38:06.925Z,71.91
2022-10-01T18:40:41.250Z,70.97
2022-10-01T18:43:14.526Z,71.42
2022-10-01T18:45:57.889Z,72.07
2022-10-01T18:48:59.522Z,71.30
2022-10-01T18:51:41.084Z,70.79
2022-10-01T18:54:25.967Z,71.51
2022-10-01T18:57:03.534Z,71.17
2022-10-01T18:59:47.316Z,70.44
2022-10-01T19:02:30.776Z,72.11
2022-10-01T19:05:35.401Z,72.30
2022-10-01T19:08:15.148Z,72.93
2022-10-01T19:10:51.528Z,73.21
2022-10-01T19:13:26.098Z,73.02
2022-10-01T19:16:07.072Z,73.14
2022-10-01T19:18:55.106Z,74.44
2022-10-01T19:21:30.716Z,73.26
2022-10-01T19:24:36.444Z,74.20
2022-10-01T19:27:20.198Z,74.27
2022-10-01T19:29:59.694Z,74.82
2022-10-01T19:32:35.646Z,74.43
2022-10-01T19:35:13.245Z,74.34
2022-10-01T19:37:47.078Z,73.75
2022-10-01T19:40:22.521Z,73.07
2022-10-01T19:42:57.278Z,73.74
2022-10-01T19:45:30.238Z,73.83
2022-10-01T19:48:09.965Z,74.82
2022-10-01T19:50:41.932Z,76.13
2022-10-01T19:53:19.758Z,75.99
2022-10-01T19:55:49.530Z,76.38
2022-10-01T19:58:20.729Z,76.84
2022-10-01T20:00:53.519Z,77.77
2022-10-01T20:03:31.161Z,78.32
2022-10-01T20:06:04.738Z,78.22
2022-10-01T20:08:38.962Z,78.81
2022-10-01T20:11:14.724Z,78.95
2022-10-01T20:14:04.902Z,78.77
2022-10-01T20:16:40.898Z,79.01
2022-10-01T20:19:20.351Z,79.18
2022-10-01T20:22:00.959Z,79.09
2022-10-01T20:24:42.642Z,78.99
2022-10-01T20:27:20.058Z,80.12
2022-10-01T20:29:55.274Z,81.06
2022-10-01T20:32:28.392Z,80.99
2022-10-01T20:35:10.962Z,80.83
2022-10-01T20:38:00.156Z,81.28
2022-10-01T20:40:33.025Z,81.43
2022-10-01T20:43:07.207Z,81.82
2022-10-01T20:45:36.825Z,80.45
2022-10-01T20:48:11.494Z,80.03
2022-10-01T20:50:44.900Z,80.72
2022-10-01T20:53:24.991Z,82.23
2022-10-01T20:55:57.265Z,83.94
2022-10-01T20:58:28.965Z,82.82
2022-10-01T21:01:03.058Z,82.84
2022-10-01T21:03:33.307Z,82.69
2022-10-01T21:06:07.274Z,82.39
2022-10-01T21:08:48.886Z,82.53
2022-10-01T21:11:25.934Z,82.82
2022-10-01T21:13:59.889Z,83.30
2022-10-01T21:16:46.431Z,84.13
2022-10-01T21:19:32.130Z,84.60
2022-10-01T21:22:09.383Z,84.85
2022-10-01T21:24:51.622Z,84.67
2022-10-01T21:27:34.882Z,85.61
2022-10-01T21:30:08.926Z,86.11
2022-10-01T21:33:09.805Z,85.57
2022-10-01T21:35:47.980Z,94.03
2022-10-01T21:38:28.309Z,100.00
2022-10-01T21:41:09.257Z,100.00
2022-10-01T21:43:50.805Z,100.00
2022-10-01T21:46:25.914Z,100.00
2022-10-01T21:49:00.981Z,100.00
2022-10-01T21:51:47.876Z,100.00
2022-10-01T21:54:45.759Z,100.00
2022-10-01T21:57:29.015Z,100.00
2022-10-01T22:00:11.131Z,100.00
2022-10-01T22:02:51.990Z,100.00
2022-10-01T22:05:29.743Z,100.00
2022-10-01T22:08:14.644Z,100.00
2022-10-01T22:10:45.373Z,100.00
2022-10-01T22:13:17.501Z,100.00
2022-10-01T22:15:48.239Z,100.00
2022-10-01T22:18:22.653Z,100.00
2022-10-01T22:20:53.909Z,100.00
2022-10-01T22:23:21.813Z,100.00
2022-10-01T22:25:57.173Z,100.00
2022-10-01T22:28:29.813Z,100.00
2022-10-01T22:31:03.212Z,100.00
2022-10-01T22:33:36.290Z,100.00
2022-10-01T22:36:12.598Z,100.00
2022-10-01T22:38:46.978Z,100.00
2022-10-01T22:41:21.169Z,100.00
2022-10-01T22:43:49.086Z,100.00
2022-10-01T22:46:46.369Z,100.00
2022-10-01T22:49:25.167Z,100.00
2022-10-01T22:52:10.377Z,100.00
2022-10-01T22:54:47.439Z,100.00
2022-10-01T22:57:30.527Z,100.00
2022-10-01T23:00:04.625Z,100.00
2022-10-01T23:02:39.663Z,100.00
2022-10-01T23:05:18.708Z,100.00
2022-10-01T23:07:57.585Z,100.00
2022-10-01T23:10:32.147Z,100.00
2022-10-01T23:13:12.311Z,100.00
2022-10-01T23:15:47.833Z,100.00
2022-10-01T23:18:27.924Z,100.00
2022-10-01T23:21:11.087Z,100.00
2022-10-01T23:23:43.143Z,100.00
2022-10-01T23:26:30.525Z,100.00
2022-10-01T23:29:24.119Z,100.00
2022-10-01T23:32:01.418Z,100.00
2022-10-01T23:34:42.467Z,100.00
2022-10-01T23:37:26.768Z,100.00
2022-10-01T23:40:01.457Z,100.00
2022-10-01T23:42:36.785Z,100.00
2022-10-01T23:45:21.342Z,100.00
2022-10-01T23:47:58.506Z,100.00
2022-10-01T23:50:32.817Z,100.00
2022-10-01T23:53:14.614Z,100.00
2022-10-01T23:56:25.556Z,100.00
2022-10-01T23:58:58.273Z,100.00
